<?xml version="1.0" encoding="utf-8"?>
<gpx xmlns:xsi="http://www.w3.org/2001/XMLSchema-instance" xmlns:xsd="http://www.w3.org/2001/XMLSchema" version="1.1" creator="Shapelink.com" xmlns="http://www.topografix.com/GPX/1/1" xmlns:gpxtpx="http://www.garmin.com/xmlschemas/TrackPointExtension/v1">
  <metadata>
    <name>Nordisk skiløb 10.15 km, 2019-11-14</name>
    <desc></desc>
    <author><name>Per Rooth</name></author> 
    <time>2019-11-14T11:51:20Z</time>
  </metadata>
  <trk>
    <name>Nordisk skiløb 10.15 km, 2019-11-14</name>
    <trkseg>
      <trkpt lat="56.872616171543" lon="14.780669198261">
        <ele>161</ele>
        <time>2019-11-14T11:51:20Z</time>
      </trkpt>
      <trkpt lat="56.87257535169" lon="14.78066425294">
        <ele>161.6</ele>
        <time>2019-11-14T11:51:21Z</time>
      </trkpt>
      <trkpt lat="56.872087273653" lon="14.780611027875">
        <ele>161</ele>
        <time>2019-11-14T11:51:31Z</time>
      </trkpt>
      <trkpt lat="56.871737245509" lon="14.780549840005">
        <ele>161.4</ele>
        <time>2019-11-14T11:51:38Z</time>
      </trkpt>
      <trkpt lat="56.87128034814" lon="14.780518324061">
        <ele>160.6</ele>
        <time>2019-11-14T11:51:47Z</time>
      </trkpt>
      <trkpt lat="56.871228967093" lon="14.780513211102">
        <ele>160.4</ele>
        <time>2019-11-14T11:51:48Z</time>
      </trkpt>
      <trkpt lat="56.870756647028" lon="14.780458142019">
        <ele>160</ele>
        <time>2019-11-14T11:51:57Z</time>
      </trkpt>
      <trkpt lat="56.870263204575" lon="14.780390248629">
        <ele>160.2</ele>
        <time>2019-11-14T11:52:07Z</time>
      </trkpt>
      <trkpt lat="56.870068073943" lon="14.78038429748">
        <ele>159.8</ele>
        <time>2019-11-14T11:52:11Z</time>
      </trkpt>
      <trkpt lat="56.869744281146" lon="14.780359403237">
        <ele>159.6</ele>
        <time>2019-11-14T11:52:17Z</time>
      </trkpt>
      <trkpt lat="56.869642943975" lon="14.780354625554">
        <ele>159.4</ele>
        <time>2019-11-14T11:52:19Z</time>
      </trkpt>
      <trkpt lat="56.869146484038" lon="14.780294694969">
        <ele>158.6</ele>
        <time>2019-11-14T11:52:29Z</time>
      </trkpt>
      <trkpt lat="56.869037686976" lon="14.780286480707">
        <ele>158.4</ele>
        <time>2019-11-14T11:52:31Z</time>
      </trkpt>
      <trkpt lat="56.868584477643" lon="14.780201823517">
        <ele>157.8</ele>
        <time>2019-11-14T11:52:40Z</time>
      </trkpt>
      <trkpt lat="56.8684841463" lon="14.780183718613">
        <ele>157.4</ele>
        <time>2019-11-14T11:52:42Z</time>
      </trkpt>
      <trkpt lat="56.868348191882" lon="14.780150107194">
        <ele>157.4</ele>
        <time>2019-11-14T11:52:45Z</time>
      </trkpt>
      <trkpt lat="56.868194384017" lon="14.780069557135">
        <ele>157.4</ele>
        <time>2019-11-14T11:52:48Z</time>
      </trkpt>
      <trkpt lat="56.868102266936" lon="14.779985654316">
        <ele>157</ele>
        <time>2019-11-14T11:52:50Z</time>
      </trkpt>
      <trkpt lat="56.868011826235" lon="14.779881970213">
        <ele>156.4</ele>
        <time>2019-11-14T11:52:52Z</time>
      </trkpt>
      <trkpt lat="56.867933706927" lon="14.779774681893">
        <ele>156</ele>
        <time>2019-11-14T11:52:54Z</time>
      </trkpt>
      <trkpt lat="56.867850223203" lon="14.779670578695">
        <ele>156.4</ele>
        <time>2019-11-14T11:52:56Z</time>
      </trkpt>
      <trkpt lat="56.867716028984" lon="14.779514507717">
        <ele>157</ele>
        <time>2019-11-14T11:52:59Z</time>
      </trkpt>
      <trkpt lat="56.867420986104" lon="14.779190882558">
        <ele>155.8</ele>
        <time>2019-11-14T11:53:06Z</time>
      </trkpt>
      <trkpt lat="56.867350494325" lon="14.779100441857">
        <ele>156</ele>
        <time>2019-11-14T11:53:08Z</time>
      </trkpt>
      <trkpt lat="56.867187382551" lon="14.778913022573">
        <ele>156.8</ele>
        <time>2019-11-14T11:53:12Z</time>
      </trkpt>
      <trkpt lat="56.866807011929" lon="14.778430644228">
        <ele>156.8</ele>
        <time>2019-11-14T11:53:22Z</time>
      </trkpt>
      <trkpt lat="56.866677511574" lon="14.778274824707">
        <ele>156.8</ele>
        <time>2019-11-14T11:53:25Z</time>
      </trkpt>
      <trkpt lat="56.866291189803" lon="14.777833517672">
        <ele>156.2</ele>
        <time>2019-11-14T11:53:34Z</time>
      </trkpt>
      <trkpt lat="56.866169736072" lon="14.777689348992">
        <ele>155.8</ele>
        <time>2019-11-14T11:53:37Z</time>
      </trkpt>
      <trkpt lat="56.865761872818" lon="14.777341416323">
        <ele>155.6</ele>
        <time>2019-11-14T11:53:47Z</time>
      </trkpt>
      <trkpt lat="56.865724741001" lon="14.777304116868">
        <ele>155.4</ele>
        <time>2019-11-14T11:53:48Z</time>
      </trkpt>
      <trkpt lat="56.865653243394" lon="14.777220800782">
        <ele>155.2</ele>
        <time>2019-11-14T11:53:50Z</time>
      </trkpt>
      <trkpt lat="56.865414526882" lon="14.776985269392">
        <ele>155.6</ele>
        <time>2019-11-14T11:53:55Z</time>
      </trkpt>
      <trkpt lat="56.864980595919" lon="14.776692238168">
        <ele>155.8</ele>
        <time>2019-11-14T11:54:05Z</time>
      </trkpt>
      <trkpt lat="56.864570553371" lon="14.776419574961">
        <ele>155.4</ele>
        <time>2019-11-14T11:54:14Z</time>
      </trkpt>
      <trkpt lat="56.86449184733" lon="14.776359392919">
        <ele>155.6</ele>
        <time>2019-11-14T11:54:16Z</time>
      </trkpt>
      <trkpt lat="56.864049618286" lon="14.775982626514">
        <ele>156.2</ele>
        <time>2019-11-14T11:54:26Z</time>
      </trkpt>
      <trkpt lat="56.864012067374" lon="14.775958570461">
        <ele>156</ele>
        <time>2019-11-14T11:54:27Z</time>
      </trkpt>
      <trkpt lat="56.863569251597" lon="14.775638214243">
        <ele>156.4</ele>
        <time>2019-11-14T11:54:37Z</time>
      </trkpt>
      <trkpt lat="56.863518038188" lon="14.775604016091">
        <ele>156.4</ele>
        <time>2019-11-14T11:54:38Z</time>
      </trkpt>
      <trkpt lat="56.863087962899" lon="14.775250216092">
        <ele>156</ele>
        <time>2019-11-14T11:54:49Z</time>
      </trkpt>
      <trkpt lat="56.862662497655" lon="14.774882585958">
        <ele>155.8</ele>
        <time>2019-11-14T11:55:01Z</time>
      </trkpt>
      <trkpt lat="56.86225136546" lon="14.774512692711">
        <ele>156</ele>
        <time>2019-11-14T11:55:12Z</time>
      </trkpt>
      <trkpt lat="56.862035196259" lon="14.774277999511">
        <ele>156.2</ele>
        <time>2019-11-14T11:55:15Z</time>
      </trkpt>
      <trkpt lat="56.86183562322" lon="14.773999301336">
        <ele>155.4</ele>
        <time>2019-11-14T11:55:19Z</time>
      </trkpt>
      <trkpt lat="56.861525409101" lon="14.773380046564">
        <ele>156.4</ele>
        <time>2019-11-14T11:55:29Z</time>
      </trkpt>
      <trkpt lat="56.861483834877" lon="14.773323971653">
        <ele>156.8</ele>
        <time>2019-11-14T11:55:30Z</time>
      </trkpt>
      <trkpt lat="56.861450642553" lon="14.773259431023">
        <ele>157.2</ele>
        <time>2019-11-14T11:55:31Z</time>
      </trkpt>
      <trkpt lat="56.861416025306" lon="14.773198159334">
        <ele>157.4</ele>
        <time>2019-11-14T11:55:32Z</time>
      </trkpt>
      <trkpt lat="56.86133941474" lon="14.773078549621">
        <ele>157.2</ele>
        <time>2019-11-14T11:55:34Z</time>
      </trkpt>
      <trkpt lat="56.860987877854" lon="14.77248351854">
        <ele>157</ele>
        <time>2019-11-14T11:55:43Z</time>
      </trkpt>
      <trkpt lat="56.860836081645" lon="14.772028632827">
        <ele>156.2</ele>
        <time>2019-11-14T11:55:49Z</time>
      </trkpt>
      <trkpt lat="56.860745473306" lon="14.771759741475">
        <ele>156.2</ele>
        <time>2019-11-14T11:55:52Z</time>
      </trkpt>
      <trkpt lat="56.860581607161" lon="14.771264455004">
        <ele>156</ele>
        <time>2019-11-14T11:55:58Z</time>
      </trkpt>
      <trkpt lat="56.860547073733" lon="14.771187425343">
        <ele>155.8</ele>
        <time>2019-11-14T11:55:59Z</time>
      </trkpt>
      <trkpt lat="56.860464092923" lon="14.770912079928">
        <ele>154.2</ele>
        <time>2019-11-14T11:56:02Z</time>
      </trkpt>
      <trkpt lat="56.860434504816" lon="14.770826584548">
        <ele>153.2</ele>
        <time>2019-11-14T11:56:03Z</time>
      </trkpt>
      <trkpt lat="56.860372562575" lon="14.770649055906">
        <ele>152</ele>
        <time>2019-11-14T11:56:05Z</time>
      </trkpt>
      <trkpt lat="56.860316152388" lon="14.770511006013">
        <ele>151.2</ele>
        <time>2019-11-14T11:56:07Z</time>
      </trkpt>
      <trkpt lat="56.860296119647" lon="14.770450740152">
        <ele>150.8</ele>
        <time>2019-11-14T11:56:08Z</time>
      </trkpt>
      <trkpt lat="56.860208277335" lon="14.770148572657">
        <ele>149.8</ele>
        <time>2019-11-14T11:56:12Z</time>
      </trkpt>
      <trkpt lat="56.860179192142" lon="14.770052264626">
        <ele>149.8</ele>
        <time>2019-11-14T11:56:13Z</time>
      </trkpt>
      <trkpt lat="56.860057403135" lon="14.769632499074">
        <ele>151.2</ele>
        <time>2019-11-14T11:56:18Z</time>
      </trkpt>
      <trkpt lat="56.859863026874" lon="14.769145594503">
        <ele>152</ele>
        <time>2019-11-14T11:56:23Z</time>
      </trkpt>
      <trkpt lat="56.859596063359" lon="14.76838560763">
        <ele>151</ele>
        <time>2019-11-14T11:56:32Z</time>
      </trkpt>
      <trkpt lat="56.859394478664" lon="14.767640372901">
        <ele>151.6</ele>
        <time>2019-11-14T11:56:41Z</time>
      </trkpt>
      <trkpt lat="56.859192977788" lon="14.767052131159">
        <ele>151.4</ele>
        <time>2019-11-14T11:56:49Z</time>
      </trkpt>
      <trkpt lat="56.859085773287" lon="14.766714089132">
        <ele>151</ele>
        <time>2019-11-14T11:56:54Z</time>
      </trkpt>
      <trkpt lat="56.858887541352" lon="14.766289713535">
        <ele>152</ele>
        <time>2019-11-14T11:57:01Z</time>
      </trkpt>
      <trkpt lat="56.858768602191" lon="14.766167924528">
        <ele>152</ele>
        <time>2019-11-14T11:57:04Z</time>
      </trkpt>
      <trkpt lat="56.85868738158" lon="14.76610573083">
        <ele>151.8</ele>
        <time>2019-11-14T11:57:06Z</time>
      </trkpt>
      <trkpt lat="56.85839736784" lon="14.765911941302">
        <ele>152.4</ele>
        <time>2019-11-14T11:57:13Z</time>
      </trkpt>
      <trkpt lat="56.858306927139" lon="14.765859470608">
        <ele>152.2</ele>
        <time>2019-11-14T11:57:15Z</time>
      </trkpt>
      <trkpt lat="56.85799671302" lon="14.765521763857">
        <ele>152.2</ele>
        <time>2019-11-14T11:57:23Z</time>
      </trkpt>
      <trkpt lat="56.857610475068" lon="14.765008288663">
        <ele>153.2</ele>
        <time>2019-11-14T11:57:33Z</time>
      </trkpt>
      <trkpt lat="56.85744434581" lon="14.764812487479">
        <ele>153</ele>
        <time>2019-11-14T11:57:37Z</time>
      </trkpt>
      <trkpt lat="56.857282407502" lon="14.764569244741">
        <ele>153.6</ele>
        <time>2019-11-14T11:57:42Z</time>
      </trkpt>
      <trkpt lat="56.857044780637" lon="14.764197926571">
        <ele>154.8</ele>
        <time>2019-11-14T11:57:50Z</time>
      </trkpt>
      <trkpt lat="56.856959704352" lon="14.764009669097">
        <ele>154.8</ele>
        <time>2019-11-14T11:57:53Z</time>
      </trkpt>
      <trkpt lat="56.856809333066" lon="14.763647571017">
        <ele>154.6</ele>
        <time>2019-11-14T11:57:58Z</time>
      </trkpt>
      <trkpt lat="56.856695423045" lon="14.763192433847">
        <ele>155.2</ele>
        <time>2019-11-14T11:58:04Z</time>
      </trkpt>
      <trkpt lat="56.856516637118" lon="14.762437476114">
        <ele>155</ele>
        <time>2019-11-14T11:58:14Z</time>
      </trkpt>
      <trkpt lat="56.856286637782" lon="14.761686457874">
        <ele>154</ele>
        <time>2019-11-14T11:58:24Z</time>
      </trkpt>
      <trkpt lat="56.856055632618" lon="14.760936110186">
        <ele>153.8</ele>
        <time>2019-11-14T11:58:33Z</time>
      </trkpt>
      <trkpt lat="56.85604289213" lon="14.760847848779">
        <ele>153.6</ele>
        <time>2019-11-14T11:58:34Z</time>
      </trkpt>
      <trkpt lat="56.856038365904" lon="14.760758581544">
        <ele>153.6</ele>
        <time>2019-11-14T11:58:35Z</time>
      </trkpt>
      <trkpt lat="56.856057728093" lon="14.759920978277">
        <ele>153.8</ele>
        <time>2019-11-14T11:58:45Z</time>
      </trkpt>
      <trkpt lat="56.856056973722" lon="14.759583103888">
        <ele>153.4</ele>
        <time>2019-11-14T11:58:49Z</time>
      </trkpt>
      <trkpt lat="56.856057392817" lon="14.759326533929">
        <ele>153</ele>
        <time>2019-11-14T11:58:52Z</time>
      </trkpt>
      <trkpt lat="56.856088573485" lon="14.75841785215">
        <ele>153</ele>
        <time>2019-11-14T11:59:02Z</time>
      </trkpt>
      <trkpt lat="56.856087400019" lon="14.757942514601">
        <ele>152.4</ele>
        <time>2019-11-14T11:59:07Z</time>
      </trkpt>
      <trkpt lat="56.856109025321" lon="14.757343208751">
        <ele>151.4</ele>
        <time>2019-11-14T11:59:13Z</time>
      </trkpt>
      <trkpt lat="56.856151689192" lon="14.756579366204">
        <ele>151.4</ele>
        <time>2019-11-14T11:59:21Z</time>
      </trkpt>
      <trkpt lat="56.856146157138" lon="14.756221710531">
        <ele>151.2</ele>
        <time>2019-11-14T11:59:25Z</time>
      </trkpt>
      <trkpt lat="56.856153868486" lon="14.755955836663">
        <ele>150.4</ele>
        <time>2019-11-14T11:59:28Z</time>
      </trkpt>
      <trkpt lat="56.856156969789" lon="14.755870089826">
        <ele>150.2</ele>
        <time>2019-11-14T11:59:29Z</time>
      </trkpt>
      <trkpt lat="56.856155796323" lon="14.755782750428">
        <ele>150.2</ele>
        <time>2019-11-14T11:59:30Z</time>
      </trkpt>
      <trkpt lat="56.856133081374" lon="14.755448480256">
        <ele>150.4</ele>
        <time>2019-11-14T11:59:34Z</time>
      </trkpt>
      <trkpt lat="56.856130818261" lon="14.755110186772">
        <ele>151.2</ele>
        <time>2019-11-14T11:59:38Z</time>
      </trkpt>
      <trkpt lat="56.856135595944" lon="14.754874990658">
        <ele>151.2</ele>
        <time>2019-11-14T11:59:41Z</time>
      </trkpt>
      <trkpt lat="56.856128722786" lon="14.754634765404">
        <ele>151.2</ele>
        <time>2019-11-14T11:59:44Z</time>
      </trkpt>
      <trkpt lat="56.85612503475" lon="14.754463020273">
        <ele>151</ele>
        <time>2019-11-14T11:59:46Z</time>
      </trkpt>
      <trkpt lat="56.856100811059" lon="14.754297142472">
        <ele>150.8</ele>
        <time>2019-11-14T11:59:48Z</time>
      </trkpt>
      <trkpt lat="56.856073569884" lon="14.75385558398">
        <ele>150.2</ele>
        <time>2019-11-14T11:59:53Z</time>
      </trkpt>
      <trkpt lat="56.856015902412" lon="14.753145553231">
        <ele>150.4</ele>
        <time>2019-11-14T12:00:01Z</time>
      </trkpt>
      <trkpt lat="56.856018416982" lon="14.752985291303">
        <ele>150.2</ele>
        <time>2019-11-14T12:00:03Z</time>
      </trkpt>
      <trkpt lat="56.856006933779" lon="14.752822514805">
        <ele>149.6</ele>
        <time>2019-11-14T12:00:05Z</time>
      </trkpt>
      <trkpt lat="56.855949098669" lon="14.751996646198">
        <ele>150.8</ele>
        <time>2019-11-14T12:00:15Z</time>
      </trkpt>
      <trkpt lat="56.855932502507" lon="14.751130125376">
        <ele>150.8</ele>
        <time>2019-11-14T12:00:26Z</time>
      </trkpt>
      <trkpt lat="56.8559196782" lon="14.750511122061">
        <ele>150.4</ele>
        <time>2019-11-14T12:00:34Z</time>
      </trkpt>
      <trkpt lat="56.855881372917" lon="14.749772006119">
        <ele>150.6</ele>
        <time>2019-11-14T12:00:43Z</time>
      </trkpt>
      <trkpt lat="56.85587944508" lon="14.749608559069">
        <ele>151.4</ele>
        <time>2019-11-14T12:00:45Z</time>
      </trkpt>
      <trkpt lat="56.855858993244" lon="14.74903096234">
        <ele>151.6</ele>
        <time>2019-11-14T12:00:52Z</time>
      </trkpt>
      <trkpt lat="56.855830997698" lon="14.748636007212">
        <ele>150.4</ele>
        <time>2019-11-14T12:00:57Z</time>
      </trkpt>
      <trkpt lat="56.855808115111" lon="14.748159412378">
        <ele>151</ele>
        <time>2019-11-14T12:01:03Z</time>
      </trkpt>
      <trkpt lat="56.855799481754" lon="14.748015495155">
        <ele>151.4</ele>
        <time>2019-11-14T12:01:05Z</time>
      </trkpt>
      <trkpt lat="56.855793530605" lon="14.747858753625">
        <ele>151.4</ele>
        <time>2019-11-14T12:01:07Z</time>
      </trkpt>
      <trkpt lat="56.855785735438" lon="14.747631771773">
        <ele>151.4</ele>
        <time>2019-11-14T12:01:10Z</time>
      </trkpt>
      <trkpt lat="56.855752375476" lon="14.74680389151">
        <ele>152.2</ele>
        <time>2019-11-14T12:01:22Z</time>
      </trkpt>
      <trkpt lat="56.855761679385" lon="14.746753516291">
        <ele>152.6</ele>
        <time>2019-11-14T12:01:23Z</time>
      </trkpt>
      <trkpt lat="56.855791016035" lon="14.746719737234">
        <ele>153</ele>
        <time>2019-11-14T12:01:25Z</time>
      </trkpt>
      <trkpt lat="56.855854383199" lon="14.747611822851">
        <ele>153.4</ele>
        <time>2019-11-14T12:01:37Z</time>
      </trkpt>
      <trkpt lat="56.855878942166" lon="14.74802094339">
        <ele>153</ele>
        <time>2019-11-14T12:01:41Z</time>
      </trkpt>
      <trkpt lat="56.855910877205" lon="14.748863408159">
        <ele>152.2</ele>
        <time>2019-11-14T12:01:50Z</time>
      </trkpt>
      <trkpt lat="56.855944488624" lon="14.749759517088">
        <ele>151.6</ele>
        <time>2019-11-14T12:02:00Z</time>
      </trkpt>
      <trkpt lat="56.855980614613" lon="14.750634671267">
        <ele>151.4</ele>
        <time>2019-11-14T12:02:10Z</time>
      </trkpt>
      <trkpt lat="56.856008861616" lon="14.751408404456">
        <ele>150.6</ele>
        <time>2019-11-14T12:02:19Z</time>
      </trkpt>
      <trkpt lat="56.856082035603" lon="14.752267381568">
        <ele>150.4</ele>
        <time>2019-11-14T12:02:28Z</time>
      </trkpt>
      <trkpt lat="56.85610910914" lon="14.752810025774">
        <ele>150.4</ele>
        <time>2019-11-14T12:02:34Z</time>
      </trkpt>
      <trkpt lat="56.856156131599" lon="14.753659028425">
        <ele>149.6</ele>
        <time>2019-11-14T12:02:44Z</time>
      </trkpt>
      <trkpt lat="56.856168704449" lon="14.753889195399">
        <ele>149.8</ele>
        <time>2019-11-14T12:02:47Z</time>
      </trkpt>
      <trkpt lat="56.856198376375" lon="14.754484477937">
        <ele>149.8</ele>
        <time>2019-11-14T12:02:54Z</time>
      </trkpt>
      <trkpt lat="56.856219247306" lon="14.754641387105">
        <ele>149.6</ele>
        <time>2019-11-14T12:02:56Z</time>
      </trkpt>
      <trkpt lat="56.856238106581" lon="14.754798799187">
        <ele>149.4</ele>
        <time>2019-11-14T12:02:58Z</time>
      </trkpt>
      <trkpt lat="56.856249673603" lon="14.755122005251">
        <ele>148.8</ele>
        <time>2019-11-14T12:03:02Z</time>
      </trkpt>
      <trkpt lat="56.856248081042" lon="14.755361140858">
        <ele>149.2</ele>
        <time>2019-11-14T12:03:05Z</time>
      </trkpt>
      <trkpt lat="56.856236262563" lon="14.755511763601">
        <ele>149.6</ele>
        <time>2019-11-14T12:03:07Z</time>
      </trkpt>
      <trkpt lat="56.856084717811" lon="14.756301673857">
        <ele>149.8</ele>
        <time>2019-11-14T12:03:18Z</time>
      </trkpt>
      <trkpt lat="56.856081365051" lon="14.756576264901">
        <ele>150.4</ele>
        <time>2019-11-14T12:03:21Z</time>
      </trkpt>
      <trkpt lat="56.856074491893" lon="14.756658407521">
        <ele>150.8</ele>
        <time>2019-11-14T12:03:22Z</time>
      </trkpt>
      <trkpt lat="56.856053201867" lon="14.756829565919">
        <ele>151</ele>
        <time>2019-11-14T12:03:24Z</time>
      </trkpt>
      <trkpt lat="56.856047753632" lon="14.757713856369">
        <ele>150</ele>
        <time>2019-11-14T12:03:34Z</time>
      </trkpt>
      <trkpt lat="56.856065942355" lon="14.758049300007">
        <ele>149.4</ele>
        <time>2019-11-14T12:03:38Z</time>
      </trkpt>
      <trkpt lat="56.856066612907" lon="14.758480297305">
        <ele>150.8</ele>
        <time>2019-11-14T12:03:44Z</time>
      </trkpt>
      <trkpt lat="56.85606468507" lon="14.759271464846">
        <ele>151.4</ele>
        <time>2019-11-14T12:03:54Z</time>
      </trkpt>
      <trkpt lat="56.856060158844" lon="14.759691230398">
        <ele>150.6</ele>
        <time>2019-11-14T12:03:59Z</time>
      </trkpt>
      <trkpt lat="56.856063930699" lon="14.759957271904">
        <ele>150.4</ele>
        <time>2019-11-14T12:04:02Z</time>
      </trkpt>
      <trkpt lat="56.856082706155" lon="14.760575269391">
        <ele>151.4</ele>
        <time>2019-11-14T12:04:09Z</time>
      </trkpt>
      <trkpt lat="56.856098128851" lon="14.760968967234">
        <ele>151.2</ele>
        <time>2019-11-14T12:04:14Z</time>
      </trkpt>
      <trkpt lat="56.856142217645" lon="14.761243893554">
        <ele>151.8</ele>
        <time>2019-11-14T12:04:18Z</time>
      </trkpt>
      <trkpt lat="56.856227545387" lon="14.76148562755">
        <ele>153</ele>
        <time>2019-11-14T12:04:22Z</time>
      </trkpt>
      <trkpt lat="56.856434075403" lon="14.762128854556">
        <ele>154.2</ele>
        <time>2019-11-14T12:04:32Z</time>
      </trkpt>
      <trkpt lat="56.856478331835" lon="14.762326164482">
        <ele>155.4</ele>
        <time>2019-11-14T12:04:35Z</time>
      </trkpt>
      <trkpt lat="56.856584530508" lon="14.762668648916">
        <ele>155.8</ele>
        <time>2019-11-14T12:04:40Z</time>
      </trkpt>
      <trkpt lat="56.856803801012" lon="14.763471467298">
        <ele>155.6</ele>
        <time>2019-11-14T12:04:51Z</time>
      </trkpt>
      <trkpt lat="56.856853757136" lon="14.763704148842">
        <ele>155.6</ele>
        <time>2019-11-14T12:04:54Z</time>
      </trkpt>
      <trkpt lat="56.857060622428" lon="14.764236818587">
        <ele>156.4</ele>
        <time>2019-11-14T12:05:02Z</time>
      </trkpt>
      <trkpt lat="56.85734963034" lon="14.764680975468">
        <ele>155.2</ele>
        <time>2019-11-14T12:05:09Z</time>
      </trkpt>
      <trkpt lat="56.85768742091" lon="14.76516025251">
        <ele>154</ele>
        <time>2019-11-14T12:05:17Z</time>
      </trkpt>
      <trkpt lat="56.85808891392" lon="14.765677918654">
        <ele>153.6</ele>
        <time>2019-11-14T12:05:27Z</time>
      </trkpt>
      <trkpt lat="56.858256719558" lon="14.76584673012">
        <ele>153.2</ele>
        <time>2019-11-14T12:05:31Z</time>
      </trkpt>
      <trkpt lat="56.858521587598" lon="14.766056361439">
        <ele>153</ele>
        <time>2019-11-14T12:05:37Z</time>
      </trkpt>
      <trkpt lat="56.858898521641" lon="14.766386105385">
        <ele>152</ele>
        <time>2019-11-14T12:05:45Z</time>
      </trkpt>
      <trkpt lat="56.858939928227" lon="14.766448131445">
        <ele>152</ele>
        <time>2019-11-14T12:05:46Z</time>
      </trkpt>
      <trkpt lat="56.859248549785" lon="14.766924223365">
        <ele>150.6</ele>
        <time>2019-11-14T12:05:54Z</time>
      </trkpt>
      <trkpt lat="56.859281825928" lon="14.766992284393">
        <ele>150</ele>
        <time>2019-11-14T12:05:55Z</time>
      </trkpt>
      <trkpt lat="56.859368494774" lon="14.767176267098">
        <ele>149.4</ele>
        <time>2019-11-14T12:05:58Z</time>
      </trkpt>
      <trkpt lat="56.859453235783" lon="14.767365781857">
        <ele>149.6</ele>
        <time>2019-11-14T12:06:01Z</time>
      </trkpt>
      <trkpt lat="56.85949707312" lon="14.767483799009">
        <ele>149.6</ele>
        <time>2019-11-14T12:06:03Z</time>
      </trkpt>
      <trkpt lat="56.859568570727" lon="14.767711870508">
        <ele>149.6</ele>
        <time>2019-11-14T12:06:06Z</time>
      </trkpt>
      <trkpt lat="56.859634703918" lon="14.768021497894">
        <ele>150.6</ele>
        <time>2019-11-14T12:06:10Z</time>
      </trkpt>
      <trkpt lat="56.859798402425" lon="14.768826579389">
        <ele>151.4</ele>
        <time>2019-11-14T12:06:20Z</time>
      </trkpt>
      <trkpt lat="56.859854896431" lon="14.768985081118">
        <ele>151.2</ele>
        <time>2019-11-14T12:06:22Z</time>
      </trkpt>
      <trkpt lat="56.859958831991" lon="14.769198987206">
        <ele>150.8</ele>
        <time>2019-11-14T12:06:25Z</time>
      </trkpt>
      <trkpt lat="56.86004608757" lon="14.769393363467">
        <ele>149.8</ele>
        <time>2019-11-14T12:06:28Z</time>
      </trkpt>
      <trkpt lat="56.860071652365" lon="14.769459412839">
        <ele>149.6</ele>
        <time>2019-11-14T12:06:29Z</time>
      </trkpt>
      <trkpt lat="56.860141389773" lon="14.769652028901">
        <ele>149.2</ele>
        <time>2019-11-14T12:06:32Z</time>
      </trkpt>
      <trkpt lat="56.860279607304" lon="14.770020748682">
        <ele>150.6</ele>
        <time>2019-11-14T12:06:38Z</time>
      </trkpt>
      <trkpt lat="56.860364348313" lon="14.770269439655">
        <ele>151.6</ele>
        <time>2019-11-14T12:06:42Z</time>
      </trkpt>
      <trkpt lat="56.86052050311" lon="14.770682415868">
        <ele>152.8</ele>
        <time>2019-11-14T12:06:49Z</time>
      </trkpt>
      <trkpt lat="56.860692164422" lon="14.771102935791">
        <ele>153.8</ele>
        <time>2019-11-14T12:06:56Z</time>
      </trkpt>
      <trkpt lat="56.860885031941" lon="14.77163107931">
        <ele>155</ele>
        <time>2019-11-14T12:07:05Z</time>
      </trkpt>
      <trkpt lat="56.860994331917" lon="14.771894690065">
        <ele>156.2</ele>
        <time>2019-11-14T12:07:10Z</time>
      </trkpt>
      <trkpt lat="56.861168591618" lon="14.772489218232">
        <ele>155.6</ele>
        <time>2019-11-14T12:07:18Z</time>
      </trkpt>
      <trkpt lat="56.861463802136" lon="14.773220539007">
        <ele>156.6</ele>
        <time>2019-11-14T12:07:28Z</time>
      </trkpt>
      <trkpt lat="56.861618196734" lon="14.773621110008">
        <ele>156.2</ele>
        <time>2019-11-14T12:07:33Z</time>
      </trkpt>
      <trkpt lat="56.861698662974" lon="14.773768379991">
        <ele>155.8</ele>
        <time>2019-11-14T12:07:35Z</time>
      </trkpt>
      <trkpt lat="56.861768148925" lon="14.773915901431">
        <ele>155.2</ele>
        <time>2019-11-14T12:07:37Z</time>
      </trkpt>
      <trkpt lat="56.861865714241" lon="14.774093765349">
        <ele>154.2</ele>
        <time>2019-11-14T12:07:40Z</time>
      </trkpt>
      <trkpt lat="56.862042069417" lon="14.774283028651">
        <ele>154.4</ele>
        <time>2019-11-14T12:07:44Z</time>
      </trkpt>
      <trkpt lat="56.862120021087" lon="14.774371457696">
        <ele>154.4</ele>
        <time>2019-11-14T12:07:46Z</time>
      </trkpt>
      <trkpt lat="56.862397881072" lon="14.774601373213">
        <ele>154.8</ele>
        <time>2019-11-14T12:07:53Z</time>
      </trkpt>
      <trkpt lat="56.862519167165" lon="14.774667254947">
        <ele>154.6</ele>
        <time>2019-11-14T12:07:56Z</time>
      </trkpt>
      <trkpt lat="56.862946476427" lon="14.775063299722">
        <ele>155.4</ele>
        <time>2019-11-14T12:08:08Z</time>
      </trkpt>
      <trkpt lat="56.863181001989" lon="14.775255161413">
        <ele>153.8</ele>
        <time>2019-11-14T12:08:13Z</time>
      </trkpt>
      <trkpt lat="56.863464896942" lon="14.775497230685">
        <ele>153.8</ele>
        <time>2019-11-14T12:08:19Z</time>
      </trkpt>
      <trkpt lat="56.863617363703" lon="14.775601920616">
        <ele>155.2</ele>
        <time>2019-11-14T12:08:22Z</time>
      </trkpt>
      <trkpt lat="56.863796736363" lon="14.775733097351">
        <ele>155.6</ele>
        <time>2019-11-14T12:08:26Z</time>
      </trkpt>
      <trkpt lat="56.864038805635" lon="14.775890844709">
        <ele>156.2</ele>
        <time>2019-11-14T12:08:31Z</time>
      </trkpt>
      <trkpt lat="56.864128743422" lon="14.775974244614">
        <ele>156.2</ele>
        <time>2019-11-14T12:08:33Z</time>
      </trkpt>
      <trkpt lat="56.864275091396" lon="14.776094105784">
        <ele>156.4</ele>
        <time>2019-11-14T12:08:36Z</time>
      </trkpt>
      <trkpt lat="56.864565524231" lon="14.776284291095">
        <ele>155.6</ele>
        <time>2019-11-14T12:08:42Z</time>
      </trkpt>
      <trkpt lat="56.864664263013" lon="14.776358638548">
        <ele>155</ele>
        <time>2019-11-14T12:08:44Z</time>
      </trkpt>
      <trkpt lat="56.86493692622" lon="14.77656969479">
        <ele>155</ele>
        <time>2019-11-14T12:08:50Z</time>
      </trkpt>
      <trkpt lat="56.8651732958" lon="14.776768178182">
        <ele>153.6</ele>
        <time>2019-11-14T12:08:55Z</time>
      </trkpt>
      <trkpt lat="56.865510164361" lon="14.777063975433">
        <ele>154.4</ele>
        <time>2019-11-14T12:09:02Z</time>
      </trkpt>
      <trkpt lat="56.865560455761" lon="14.777114937385">
        <ele>154.8</ele>
        <time>2019-11-14T12:09:03Z</time>
      </trkpt>
      <trkpt lat="56.865605382745" lon="14.777167743355">
        <ele>155</ele>
        <time>2019-11-14T12:09:04Z</time>
      </trkpt>
      <trkpt lat="56.865825910534" lon="14.777393970836">
        <ele>155.4</ele>
        <time>2019-11-14T12:09:09Z</time>
      </trkpt>
      <trkpt lat="56.866058340621" lon="14.777557334067">
        <ele>155.2</ele>
        <time>2019-11-14T12:09:14Z</time>
      </trkpt>
      <trkpt lat="56.866450781179" lon="14.778030157046">
        <ele>155.6</ele>
        <time>2019-11-14T12:09:24Z</time>
      </trkpt>
      <trkpt lat="56.866638200463" lon="14.778328385048">
        <ele>155.8</ele>
        <time>2019-11-14T12:09:30Z</time>
      </trkpt>
      <trkpt lat="56.867050170848" lon="14.778838172206">
        <ele>156</ele>
        <time>2019-11-14T12:09:40Z</time>
      </trkpt>
      <trkpt lat="56.867196854098" lon="14.778969851855">
        <ele>155.8</ele>
        <time>2019-11-14T12:09:43Z</time>
      </trkpt>
      <trkpt lat="56.867417298068" lon="14.77918903854">
        <ele>154.4</ele>
        <time>2019-11-14T12:09:48Z</time>
      </trkpt>
      <trkpt lat="56.867813175205" lon="14.779681223708">
        <ele>154.2</ele>
        <time>2019-11-14T12:09:58Z</time>
      </trkpt>
      <trkpt lat="56.86818658885" lon="14.780068216031">
        <ele>154</ele>
        <time>2019-11-14T12:10:07Z</time>
      </trkpt>
      <trkpt lat="56.868315753929" lon="14.780140551828">
        <ele>155</ele>
        <time>2019-11-14T12:10:10Z</time>
      </trkpt>
      <trkpt lat="56.868360261818" lon="14.780157231809">
        <ele>155.4</ele>
        <time>2019-11-14T12:10:11Z</time>
      </trkpt>
      <trkpt lat="56.868554470441" lon="14.780212719987">
        <ele>156.4</ele>
        <time>2019-11-14T12:10:15Z</time>
      </trkpt>
      <trkpt lat="56.869019498253" lon="14.780291342209">
        <ele>156.8</ele>
        <time>2019-11-14T12:10:25Z</time>
      </trkpt>
      <trkpt lat="56.869493578517" lon="14.780367366042">
        <ele>157.4</ele>
        <time>2019-11-14T12:10:36Z</time>
      </trkpt>
      <trkpt lat="56.869536745302" lon="14.780368288051">
        <ele>157.6</ele>
        <time>2019-11-14T12:10:37Z</time>
      </trkpt>
      <trkpt lat="56.869677980317" lon="14.780370718802">
        <ele>159.4</ele>
        <time>2019-11-14T12:10:40Z</time>
      </trkpt>
      <trkpt lat="56.870127585433" lon="14.780397792339">
        <ele>159.6</ele>
        <time>2019-11-14T12:10:50Z</time>
      </trkpt>
      <trkpt lat="56.870621195524" lon="14.780454118707">
        <ele>159.6</ele>
        <time>2019-11-14T12:11:01Z</time>
      </trkpt>
      <trkpt lat="56.871098880005" lon="14.780480773149">
        <ele>159.8</ele>
        <time>2019-11-14T12:11:11Z</time>
      </trkpt>
      <trkpt lat="56.871512862046" lon="14.780554617688">
        <ele>160.4</ele>
        <time>2019-11-14T12:11:20Z</time>
      </trkpt>
      <trkpt lat="56.87195844385" lon="14.780611530789">
        <ele>160</ele>
        <time>2019-11-14T12:11:31Z</time>
      </trkpt>
      <trkpt lat="56.872084423807" lon="14.780584876347">
        <ele>160.4</ele>
        <time>2019-11-14T12:11:34Z</time>
      </trkpt>
      <trkpt lat="56.872571412197" lon="14.780604992907">
        <ele>160.6</ele>
        <time>2019-11-14T12:11:45Z</time>
      </trkpt>
      <trkpt lat="56.872716754343" lon="14.780658134153">
        <ele>160.6</ele>
        <time>2019-11-14T12:11:50Z</time>
      </trkpt>
      <trkpt lat="56.872665457115" lon="14.780696020341">
        <ele>160</ele>
        <time>2019-11-14T12:11:53Z</time>
      </trkpt>
      <trkpt lat="56.872214846171" lon="14.780630473883">
        <ele>161.2</ele>
        <time>2019-11-14T12:12:03Z</time>
      </trkpt>
      <trkpt lat="56.872165979694" lon="14.780625528562">
        <ele>161.6</ele>
        <time>2019-11-14T12:12:04Z</time>
      </trkpt>
      <trkpt lat="56.871925335345" lon="14.780586385089">
        <ele>161.6</ele>
        <time>2019-11-14T12:12:09Z</time>
      </trkpt>
      <trkpt lat="56.871462151551" lon="14.780519413708">
        <ele>161.8</ele>
        <time>2019-11-14T12:12:18Z</time>
      </trkpt>
      <trkpt lat="56.870993854798" lon="14.780487646307">
        <ele>160.6</ele>
        <time>2019-11-14T12:12:28Z</time>
      </trkpt>
      <trkpt lat="56.870584901897" lon="14.78044464716">
        <ele>159.2</ele>
        <time>2019-11-14T12:12:36Z</time>
      </trkpt>
      <trkpt lat="56.870137811351" lon="14.780401480375">
        <ele>160.4</ele>
        <time>2019-11-14T12:12:45Z</time>
      </trkpt>
      <trkpt lat="56.869639423577" lon="14.780340963057">
        <ele>159.4</ele>
        <time>2019-11-14T12:12:55Z</time>
      </trkpt>
      <trkpt lat="56.869425266032" lon="14.780310788217">
        <ele>158</ele>
        <time>2019-11-14T12:12:59Z</time>
      </trkpt>
      <trkpt lat="56.868975660916" lon="14.78029628753">
        <ele>157.2</ele>
        <time>2019-11-14T12:13:08Z</time>
      </trkpt>
      <trkpt lat="56.868884130568" lon="14.780275416599">
        <ele>157.2</ele>
        <time>2019-11-14T12:13:10Z</time>
      </trkpt>
      <trkpt lat="56.868793773686" lon="14.780240044981">
        <ele>157</ele>
        <time>2019-11-14T12:13:12Z</time>
      </trkpt>
      <trkpt lat="56.868596296122" lon="14.780208109942">
        <ele>156.8</ele>
        <time>2019-11-14T12:13:16Z</time>
      </trkpt>
      <trkpt lat="56.868241155019" lon="14.780111131359">
        <ele>156.4</ele>
        <time>2019-11-14T12:13:24Z</time>
      </trkpt>
      <trkpt lat="56.868011490959" lon="14.779846766233">
        <ele>156.4</ele>
        <time>2019-11-14T12:13:29Z</time>
      </trkpt>
      <trkpt lat="56.867916356394" lon="14.779734364954">
        <ele>156.2</ele>
        <time>2019-11-14T12:13:31Z</time>
      </trkpt>
      <trkpt lat="56.86781107973" lon="14.779621963675">
        <ele>155.8</ele>
        <time>2019-11-14T12:13:33Z</time>
      </trkpt>
      <trkpt lat="56.867646626852" lon="14.779421133351">
        <ele>154.4</ele>
        <time>2019-11-14T12:13:37Z</time>
      </trkpt>
      <trkpt lat="56.867355523465" lon="14.779078229822">
        <ele>155.6</ele>
        <time>2019-11-14T12:13:44Z</time>
      </trkpt>
      <trkpt lat="56.866944307451" lon="14.778638096253">
        <ele>155.4</ele>
        <time>2019-11-14T12:13:54Z</time>
      </trkpt>
      <trkpt lat="56.866858392976" lon="14.778530472657">
        <ele>155.4</ele>
        <time>2019-11-14T12:13:56Z</time>
      </trkpt>
      <trkpt lat="56.866739118539" lon="14.778365265408">
        <ele>155.4</ele>
        <time>2019-11-14T12:13:59Z</time>
      </trkpt>
      <trkpt lat="56.866533845808" lon="14.778109366001">
        <ele>155.4</ele>
        <time>2019-11-14T12:14:04Z</time>
      </trkpt>
      <trkpt lat="56.866127658934" lon="14.777683733119">
        <ele>155.4</ele>
        <time>2019-11-14T12:14:12Z</time>
      </trkpt>
      <trkpt lat="56.865869580233" lon="14.777451219213">
        <ele>155</ele>
        <time>2019-11-14T12:14:18Z</time>
      </trkpt>
      <trkpt lat="56.865807051259" lon="14.777369663326">
        <ele>154.2</ele>
        <time>2019-11-14T12:14:20Z</time>
      </trkpt>
      <trkpt lat="56.865790958011" lon="14.77733831502">
        <ele>154</ele>
        <time>2019-11-14T12:14:21Z</time>
      </trkpt>
      <trkpt lat="56.865379239083" lon="14.776960710425">
        <ele>155.2</ele>
        <time>2019-11-14T12:14:32Z</time>
      </trkpt>
      <trkpt lat="56.865253510583" lon="14.776841184531">
        <ele>155.2</ele>
        <time>2019-11-14T12:14:35Z</time>
      </trkpt>
      <trkpt lat="56.864820082534" lon="14.77645067181">
        <ele>155.2</ele>
        <time>2019-11-14T12:14:46Z</time>
      </trkpt>
      <trkpt lat="56.864597040175" lon="14.776271885883">
        <ele>154.2</ele>
        <time>2019-11-14T12:14:52Z</time>
      </trkpt>
      <trkpt lat="56.864171407293" lon="14.775981620686">
        <ele>155.2</ele>
        <time>2019-11-14T12:15:02Z</time>
      </trkpt>
      <trkpt lat="56.864137041503" lon="14.775940549376">
        <ele>155.4</ele>
        <time>2019-11-14T12:15:03Z</time>
      </trkpt>
      <trkpt lat="56.863670672587" lon="14.775696384629">
        <ele>155.8</ele>
        <time>2019-11-14T12:15:12Z</time>
      </trkpt>
      <trkpt lat="56.863520301301" lon="14.775571829595">
        <ele>155.6</ele>
        <time>2019-11-14T12:15:15Z</time>
      </trkpt>
      <trkpt lat="56.86325048794" lon="14.775320372595">
        <ele>154</ele>
        <time>2019-11-14T12:15:21Z</time>
      </trkpt>
      <trkpt lat="56.86313062677" lon="14.775213922465">
        <ele>153.4</ele>
        <time>2019-11-14T12:15:24Z</time>
      </trkpt>
      <trkpt lat="56.862877828666" lon="14.774966572596">
        <ele>155.6</ele>
        <time>2019-11-14T12:15:31Z</time>
      </trkpt>
      <trkpt lat="56.862477341484" lon="14.774427532607">
        <ele>156.4</ele>
        <time>2019-11-14T12:15:46Z</time>
      </trkpt>
      <trkpt lat="56.862076686664" lon="14.7741800151">
        <ele>156</ele>
        <time>2019-11-14T12:15:50Z</time>
      </trkpt>
      <trkpt lat="56.861713415118" lon="14.77387910489">
        <ele>154</ele>
        <time>2019-11-14T12:15:55Z</time>
      </trkpt>
      <trkpt lat="56.861615933621" lon="14.773752454381">
        <ele>153.6</ele>
        <time>2019-11-14T12:15:57Z</time>
      </trkpt>
      <trkpt lat="56.861285519123" lon="14.773186843769">
        <ele>154</ele>
        <time>2019-11-14T12:16:06Z</time>
      </trkpt>
      <trkpt lat="56.861231874963" lon="14.773127583736">
        <ele>154.2</ele>
        <time>2019-11-14T12:16:07Z</time>
      </trkpt>
      <trkpt lat="56.861108744852" lon="14.772947121429">
        <ele>155.4</ele>
        <time>2019-11-14T12:16:10Z</time>
      </trkpt>
      <trkpt lat="56.86099827141" lon="14.772619975872">
        <ele>156.4</ele>
        <time>2019-11-14T12:16:15Z</time>
      </trkpt>
      <trkpt lat="56.860975807918" lon="14.77255727926">
        <ele>156.4</ele>
        <time>2019-11-14T12:16:16Z</time>
      </trkpt>
      <trkpt lat="56.860958541204" lon="14.772491313707">
        <ele>156.4</ele>
        <time>2019-11-14T12:16:17Z</time>
      </trkpt>
      <trkpt lat="56.860881008629" lon="14.772183949434">
        <ele>156.2</ele>
        <time>2019-11-14T12:16:21Z</time>
      </trkpt>
      <trkpt lat="56.860824849899" lon="14.772023771325">
        <ele>156.2</ele>
        <time>2019-11-14T12:16:23Z</time>
      </trkpt>
      <trkpt lat="56.860726865488" lon="14.771650944413">
        <ele>155.2</ele>
        <time>2019-11-14T12:16:28Z</time>
      </trkpt>
      <trkpt lat="56.860679172477" lon="14.771419939249">
        <ele>154</ele>
        <time>2019-11-14T12:16:31Z</time>
      </trkpt>
      <trkpt lat="56.860672131681" lon="14.771345340339">
        <ele>153.2</ele>
        <time>2019-11-14T12:16:32Z</time>
      </trkpt>
      <trkpt lat="56.860674646251" lon="14.771271411981">
        <ele>152.8</ele>
        <time>2019-11-14T12:16:33Z</time>
      </trkpt>
      <trkpt lat="56.860668611283" lon="14.77120192603">
        <ele>152.4</ele>
        <time>2019-11-14T12:16:34Z</time>
      </trkpt>
      <trkpt lat="56.860599544427" lon="14.770954827618">
        <ele>151.8</ele>
        <time>2019-11-14T12:16:37Z</time>
      </trkpt>
      <trkpt lat="56.860551599959" lon="14.770710411414">
        <ele>151.2</ele>
        <time>2019-11-14T12:16:39Z</time>
      </trkpt>
      <trkpt lat="56.860502817301" lon="14.770531290211">
        <ele>151</ele>
        <time>2019-11-14T12:16:41Z</time>
      </trkpt>
      <trkpt lat="56.860411370772" lon="14.770358790709">
        <ele>151.2</ele>
        <time>2019-11-14T12:16:43Z</time>
      </trkpt>
      <trkpt lat="56.860339034975" lon="14.770184782465">
        <ele>151.6</ele>
        <time>2019-11-14T12:16:45Z</time>
      </trkpt>
      <trkpt lat="56.860265525712" lon="14.770019575216">
        <ele>152.6</ele>
        <time>2019-11-14T12:16:47Z</time>
      </trkpt>
      <trkpt lat="56.860218000339" lon="14.769930978533">
        <ele>152.8</ele>
        <time>2019-11-14T12:16:48Z</time>
      </trkpt>
      <trkpt lat="56.860034436729" lon="14.769576088887">
        <ele>152.2</ele>
        <time>2019-11-14T12:16:52Z</time>
      </trkpt>
      <trkpt lat="56.859959502543" lon="14.769332427054">
        <ele>151.8</ele>
        <time>2019-11-14T12:16:55Z</time>
      </trkpt>
      <trkpt lat="56.859939972716" lon="14.769244584742">
        <ele>151.6</ele>
        <time>2019-11-14T12:16:56Z</time>
      </trkpt>
      <trkpt lat="56.859806616687" lon="14.768713088463">
        <ele>151.6</ele>
        <time>2019-11-14T12:17:02Z</time>
      </trkpt>
      <trkpt lat="56.859778537322" lon="14.768531955604">
        <ele>151.6</ele>
        <time>2019-11-14T12:17:04Z</time>
      </trkpt>
      <trkpt lat="56.859676781056" lon="14.768200870554">
        <ele>151.2</ele>
        <time>2019-11-14T12:17:08Z</time>
      </trkpt>
      <trkpt lat="56.859615509367" lon="14.767939271455">
        <ele>150.6</ele>
        <time>2019-11-14T12:17:11Z</time>
      </trkpt>
      <trkpt lat="56.859585753622" lon="14.767770208532">
        <ele>151.8</ele>
        <time>2019-11-14T12:17:13Z</time>
      </trkpt>
      <trkpt lat="56.859523392286" lon="14.767544148689">
        <ele>152.2</ele>
        <time>2019-11-14T12:17:16Z</time>
      </trkpt>
      <trkpt lat="56.859354999915" lon="14.76716855575">
        <ele>152.4</ele>
        <time>2019-11-14T12:17:21Z</time>
      </trkpt>
      <trkpt lat="56.85930093666" lon="14.767043246345">
        <ele>152.2</ele>
        <time>2019-11-14T12:17:23Z</time>
      </trkpt>
      <trkpt lat="56.859237653315" lon="14.766907962479">
        <ele>150.6</ele>
        <time>2019-11-14T12:17:26Z</time>
      </trkpt>
      <trkpt lat="56.859233210908" lon="14.766899832036">
        <ele>150.2</ele>
        <time>2019-11-14T12:17:27Z</time>
      </trkpt>
      <trkpt lat="56.85949791131" lon="14.767424706614">
        <ele>151.4</ele>
        <time>2019-11-14T12:17:39Z</time>
      </trkpt>
      <trkpt lat="56.859518614603" lon="14.76750299356">
        <ele>151.6</ele>
        <time>2019-11-14T12:17:40Z</time>
      </trkpt>
      <trkpt lat="56.859536887145" lon="14.767571138407">
        <ele>151.8</ele>
        <time>2019-11-14T12:17:41Z</time>
      </trkpt>
      <trkpt lat="56.859607630381" lon="14.767896607584">
        <ele>152.6</ele>
        <time>2019-11-14T12:17:46Z</time>
      </trkpt>
      <trkpt lat="56.859636799393" lon="14.768084948877">
        <ele>150.6</ele>
        <time>2019-11-14T12:17:49Z</time>
      </trkpt>
      <trkpt lat="56.859659011428" lon="14.768236242172">
        <ele>149.6</ele>
        <time>2019-11-14T12:17:51Z</time>
      </trkpt>
      <trkpt lat="56.859781638625" lon="14.768726415684">
        <ele>149.8</ele>
        <time>2019-11-14T12:17:57Z</time>
      </trkpt>
      <trkpt lat="56.8598591712" lon="14.768948200758">
        <ele>149.6</ele>
        <time>2019-11-14T12:18:00Z</time>
      </trkpt>
      <trkpt lat="56.860140886859" lon="14.769648424684">
        <ele>150.4</ele>
        <time>2019-11-14T12:18:09Z</time>
      </trkpt>
      <trkpt lat="56.860378094629" lon="14.770264326696">
        <ele>150.8</ele>
        <time>2019-11-14T12:18:19Z</time>
      </trkpt>
      <trkpt lat="56.860629216353" lon="14.770960275853">
        <ele>151.6</ele>
        <time>2019-11-14T12:18:31Z</time>
      </trkpt>
      <trkpt lat="56.860654529691" lon="14.771049123993">
        <ele>152</ele>
        <time>2019-11-14T12:18:33Z</time>
      </trkpt>
      <trkpt lat="56.860758716708" lon="14.771292031455">
        <ele>153</ele>
        <time>2019-11-14T12:18:38Z</time>
      </trkpt>
      <trkpt lat="56.86092115793" lon="14.771755382887">
        <ele>154</ele>
        <time>2019-11-14T12:18:47Z</time>
      </trkpt>
      <trkpt lat="56.86099408046" lon="14.771954955926">
        <ele>155.2</ele>
        <time>2019-11-14T12:18:51Z</time>
      </trkpt>
      <trkpt lat="56.861262385079" lon="14.772698765732">
        <ele>156</ele>
        <time>2019-11-14T12:19:02Z</time>
      </trkpt>
      <trkpt lat="56.861339917654" lon="14.772867661017">
        <ele>156</ele>
        <time>2019-11-14T12:19:04Z</time>
      </trkpt>
      <trkpt lat="56.861365482449" lon="14.772935722045">
        <ele>156.2</ele>
        <time>2019-11-14T12:19:05Z</time>
      </trkpt>
      <trkpt lat="56.861389622321" lon="14.773021049787">
        <ele>156</ele>
        <time>2019-11-14T12:19:06Z</time>
      </trkpt>
      <trkpt lat="56.861515099364" lon="14.773316092667">
        <ele>155</ele>
        <time>2019-11-14T12:19:11Z</time>
      </trkpt>
      <trkpt lat="56.861617107087" lon="14.773539386483">
        <ele>156.2</ele>
        <time>2019-11-14T12:19:14Z</time>
      </trkpt>
      <trkpt lat="56.861778039567" lon="14.773843397996">
        <ele>155.4</ele>
        <time>2019-11-14T12:19:18Z</time>
      </trkpt>
      <trkpt lat="56.862127564797" lon="14.774387383306">
        <ele>157.2</ele>
        <time>2019-11-14T12:19:27Z</time>
      </trkpt>
      <trkpt lat="56.862153716325" lon="14.774408086599">
        <ele>157.2</ele>
        <time>2019-11-14T12:19:28Z</time>
      </trkpt>
      <trkpt lat="56.862583623976" lon="14.77477429181">
        <ele>157.8</ele>
        <time>2019-11-14T12:19:40Z</time>
      </trkpt>
      <trkpt lat="56.863024260459" lon="14.775122811212">
        <ele>157.6</ele>
        <time>2019-11-14T12:19:51Z</time>
      </trkpt>
      <trkpt lat="56.863442098174" lon="14.7754708277">
        <ele>156.8</ele>
        <time>2019-11-14T12:20:00Z</time>
      </trkpt>
      <trkpt lat="56.863486689882" lon="14.775502762739">
        <ele>155.4</ele>
        <time>2019-11-14T12:20:01Z</time>
      </trkpt>
      <trkpt lat="56.863763711677" lon="14.775712394058">
        <ele>154.2</ele>
        <time>2019-11-14T12:20:07Z</time>
      </trkpt>
      <trkpt lat="56.863842166261" lon="14.775768301331">
        <ele>154.8</ele>
        <time>2019-11-14T12:20:09Z</time>
      </trkpt>
      <trkpt lat="56.863965799286" lon="14.775875002918">
        <ele>155.4</ele>
        <time>2019-11-14T12:20:12Z</time>
      </trkpt>
      <trkpt lat="56.864212227146" lon="14.776071390835">
        <ele>155.4</ele>
        <time>2019-11-14T12:20:17Z</time>
      </trkpt>
      <trkpt lat="56.864671387628" lon="14.77636182367">
        <ele>154.2</ele>
        <time>2019-11-14T12:20:26Z</time>
      </trkpt>
      <trkpt lat="56.864716985164" lon="14.776388981026">
        <ele>153.4</ele>
        <time>2019-11-14T12:20:27Z</time>
      </trkpt>
      <trkpt lat="56.864801642354" lon="14.776440529711">
        <ele>153.6</ele>
        <time>2019-11-14T12:20:29Z</time>
      </trkpt>
      <trkpt lat="56.864970118544" lon="14.776551338429">
        <ele>155.4</ele>
        <time>2019-11-14T12:20:33Z</time>
      </trkpt>
      <trkpt lat="56.865172038515" lon="14.776689891236">
        <ele>156.4</ele>
        <time>2019-11-14T12:20:37Z</time>
      </trkpt>
      <trkpt lat="56.865592139343" lon="14.777088031486">
        <ele>157</ele>
        <time>2019-11-14T12:20:47Z</time>
      </trkpt>
      <trkpt lat="56.865717700205" lon="14.777201019498">
        <ele>156.4</ele>
        <time>2019-11-14T12:20:50Z</time>
      </trkpt>
      <trkpt lat="56.865851978243" lon="14.777314175148">
        <ele>156.4</ele>
        <time>2019-11-14T12:20:53Z</time>
      </trkpt>
      <trkpt lat="56.865930851922" lon="14.77740620841">
        <ele>157</ele>
        <time>2019-11-14T12:20:55Z</time>
      </trkpt>
      <trkpt lat="56.866060771372" lon="14.777554232764">
        <ele>157.6</ele>
        <time>2019-11-14T12:20:58Z</time>
      </trkpt>
      <trkpt lat="56.866236791272" lon="14.777781633711">
        <ele>157.8</ele>
        <time>2019-11-14T12:21:02Z</time>
      </trkpt>
      <trkpt lat="56.866448434247" lon="14.778061002438">
        <ele>157.2</ele>
        <time>2019-11-14T12:21:07Z</time>
      </trkpt>
      <trkpt lat="56.866549268504" lon="14.778146665456">
        <ele>156.8</ele>
        <time>2019-11-14T12:21:09Z</time>
      </trkpt>
      <trkpt lat="56.866635769712" lon="14.778250517197">
        <ele>156.4</ele>
        <time>2019-11-14T12:21:11Z</time>
      </trkpt>
      <trkpt lat="56.86697288973" lon="14.778672378224">
        <ele>157.4</ele>
        <time>2019-11-14T12:21:20Z</time>
      </trkpt>
      <trkpt lat="56.867013374307" lon="14.778721160882">
        <ele>157.6</ele>
        <time>2019-11-14T12:21:21Z</time>
      </trkpt>
      <trkpt lat="56.86714136592" lon="14.778876980403">
        <ele>158.6</ele>
        <time>2019-11-14T12:21:24Z</time>
      </trkpt>
      <trkpt lat="56.867390727445" lon="14.7791504818">
        <ele>158</ele>
        <time>2019-11-14T12:21:29Z</time>
      </trkpt>
      <trkpt lat="56.867466918916" lon="14.779250645505">
        <ele>157.6</ele>
        <time>2019-11-14T12:21:31Z</time>
      </trkpt>
      <trkpt lat="56.867683339574" lon="14.77951425626">
        <ele>156.6</ele>
        <time>2019-11-14T12:21:36Z</time>
      </trkpt>
      <trkpt lat="56.867723321237" lon="14.779560775805">
        <ele>156.4</ele>
        <time>2019-11-14T12:21:37Z</time>
      </trkpt>
      <trkpt lat="56.868038815953" lon="14.779946259386">
        <ele>156.4</ele>
        <time>2019-11-14T12:21:46Z</time>
      </trkpt>
      <trkpt lat="56.868152977431" lon="14.780038795562">
        <ele>156.6</ele>
        <time>2019-11-14T12:21:49Z</time>
      </trkpt>
      <trkpt lat="56.86823185111" lon="14.780081124157">
        <ele>157</ele>
        <time>2019-11-14T12:21:51Z</time>
      </trkpt>
      <trkpt lat="56.868364704225" lon="14.780132169928">
        <ele>157.6</ele>
        <time>2019-11-14T12:21:54Z</time>
      </trkpt>
      <trkpt lat="56.868823194155" lon="14.780256222048">
        <ele>158</ele>
        <time>2019-11-14T12:22:03Z</time>
      </trkpt>
      <trkpt lat="56.869266429027" lon="14.780342807075">
        <ele>158.6</ele>
        <time>2019-11-14T12:22:13Z</time>
      </trkpt>
      <trkpt lat="56.869726930613" lon="14.780372479001">
        <ele>159</ele>
        <time>2019-11-14T12:22:23Z</time>
      </trkpt>
      <trkpt lat="56.869924240539" lon="14.78037843015">
        <ele>159.8</ele>
        <time>2019-11-14T12:22:27Z</time>
      </trkpt>
      <trkpt lat="56.870407540893" lon="14.780445736807">
        <ele>159.4</ele>
        <time>2019-11-14T12:22:38Z</time>
      </trkpt>
      <trkpt lat="56.870884806279" lon="14.780491334343">
        <ele>160.6</ele>
        <time>2019-11-14T12:22:48Z</time>
      </trkpt>
      <trkpt lat="56.870933253661" lon="14.780496950216">
        <ele>160.8</ele>
        <time>2019-11-14T12:22:49Z</time>
      </trkpt>
      <trkpt lat="56.871399287301" lon="14.780535255499">
        <ele>161.2</ele>
        <time>2019-11-14T12:22:59Z</time>
      </trkpt>
      <trkpt lat="56.871808491659" lon="14.780610860237">
        <ele>159.6</ele>
        <time>2019-11-14T12:23:08Z</time>
      </trkpt>
      <trkpt lat="56.872257342404" lon="14.780657212144">
        <ele>159.6</ele>
        <time>2019-11-14T12:23:18Z</time>
      </trkpt>
      <trkpt lat="56.872732177039" lon="14.780699708377">
        <ele>159.4</ele>
        <time>2019-11-14T12:23:28Z</time>
      </trkpt>
    </trkseg>
  </trk>
</gpx>